St Pierre — FIDX — position and weather

sailwx.info

Track history (hours):
 
Tides and Currents Weather Stations Pressure Air Temp Water Temp Dewpoint Dewpoint Depression Visibility Wind Speed Wind Dir Waves Ship Positions

St Pierre

Last reported at 2018-Feb-23 12:29 UTC. Time now 2018-Feb-23 12:54 UTC.
Position N 47°12' W 001°37'.

Length 84 m; draft 6.1 m.

Type: Cargo ship. MMSI: 228024800.

Date/timePositionNaut miles runAvg speedWind from/ knotsBaromVisibWave heightAir tempDewpointWater temp
2018-Feb-23 12:29N 47°12' W 001°37'0 0.0
2018-Feb-23 11:59N 47°12' W 001°37'1 1.6
2018-Feb-23 11:29N 47°12' W 001°38'0 0.0
2018-Feb-23 10:59N 47°12' W 001°38'0 0.0
2018-Feb-23 10:29N 47°12' W 001°38'0 0.0
2018-Feb-23 09:59N 47°12' W 001°38'2 4.4
2018-Feb-23 09:30N 47°12' W 001°41'4 7.4
2018-Feb-23 09:00N 47°12' W 001°46'4 7.8
2018-Feb-23 08:30N 47°15' W 001°51'4 8.6
2018-Feb-23 08:00N 47°17' W 001°56'5 9.4
2018-Feb-23 07:30N 47°18' W 002°03'5 9.9
2018-Feb-23 07:00N 47°17' W 002°10'510.5
2018-Feb-23 06:30N 47°14' W 002°16'4 7.6
2018-Feb-23 06:00N 47°10' W 002°18'4 6.9
2018-Feb-23 05:30N 47°07' W 002°21'4 7.3
2018-Feb-23 05:00N 47°05' W 002°25'4 7.1
2018-Feb-23 04:30N 47°03' W 002°29'3 7.0
2018-Feb-23 04:00N 47°00' W 002°33'1 0.9
2018-Feb-23 02:29N 46°59' W 002°34'1 1.1
2018-Feb-23 02:00N 46°60' W 002°34'3 6.9
2018-Feb-23 01:30N 47°02' W 002°30'612.0
2018-Feb-23 01:00N 47°06' W 002°24'612.2
2018-Feb-23 00:30N 47°11' W 002°18'613.0
2018-Feb-23 00:00N 47°16' W 002°12'613.0
2018-Feb-22 23:31N 47°18' W 002°03'713.4
2018-Feb-22 23:00N 47°16' W 001°53'612.6
2018-Feb-22 22:30N 47°12' W 001°46'610.4
2018-Feb-22 21:58N 47°12' W 001°38'0 0.0
2018-Feb-22 21:28N 47°12' W 001°38'0 0.0
2018-Feb-22 20:58N 47°12' W 001°38'0 0.0
2018-Feb-22 20:28N 47°12' W 001°38'0 0.2
2018-Feb-22 20:00N 47°12' W 001°38'4 7.5
2018-Feb-22 19:30N 47°12' W 001°43'4 8.9
2018-Feb-22 19:00N 47°14' W 001°50'5 9.5
2018-Feb-22 18:31N 47°17' W 001°55'510.7
2018-Feb-22 18:00N 47°18' W 002°02'510.9
2018-Feb-22 17:30N 47°17' W 002°10'611.3
2018-Feb-22 17:01N 47°13' W 002°16'510.7
2018-Feb-22 16:30N 47°08' W 002°20'510.7
2018-Feb-22 16:00N 47°05' W 002°26'8 9.7
2018-Feb-22 15:13N 46°59' W 002°34'0 0.2
2018-Feb-22 12:40N 46°59' W 002°34'0 1.1
2018-Feb-22 12:25N 46°59' W 002°34'1 2.4
2018-Feb-22 12:00N 46°60' W 002°33'612.6
2018-Feb-22 11:30N 47°04' W 002°26'713.4
2018-Feb-22 11:00N 47°09' W 002°19'713.1
2018-Feb-22 10:30N 47°15' W 002°14'613.0
2018-Feb-22 10:00N 47°18' W 002°06'713.4
2018-Feb-22 09:30N 47°17' W 001°57'611.0
2018-Feb-22 09:00N 47°14' W 001°50'611.6
2018-Feb-22 08:30N 47°12' W 001°42'3 6.2
2018-Feb-22 07:58N 47°12' W 001°37'0 0.0
2018-Feb-22 07:16N 47°12' W 001°37'0 0.0
2018-Feb-22 06:52N 47°12' W 001°37'0 0.0
2018-Feb-22 06:28N 47°12' W 001°37'0 0.0
2018-Feb-22 05:58N 47°12' W 001°37'0 0.0
2018-Feb-22 05:28N 47°12' W 001°37'0 0.0
2018-Feb-22 04:58N 47°12' W 001°37'0 0.0
2018-Feb-22 04:28N 47°12' W 001°37'0 0.0
2018-Feb-22 03:58N 47°12' W 001°37'0 0.0
2018-Feb-22 03:28N 47°12' W 001°37'0 0.0
2018-Feb-22 02:58N 47°12' W 001°37'0 0.0
2018-Feb-22 02:28N 47°12' W 001°37'0 0.0
2018-Feb-22 01:58N 47°12' W 001°37'0 0.0
2018-Feb-22 01:28N 47°12' W 001°37'0 0.0
2018-Feb-22 00:55N 47°12' W 001°37'0 0.0
2018-Feb-22 00:25N 47°12' W 001°37'0 0.0
2018-Feb-21 23:58N 47°12' W 001°37'0 0.0
2018-Feb-21 23:28N 47°12' W 001°37'0 0.0
2018-Feb-21 22:58N 47°12' W 001°37'0 0.0
2018-Feb-21 22:28N 47°12' W 001°37'0 0.0
2018-Feb-21 21:58N 47°12' W 001°37'0 0.0
2018-Feb-21 21:28N 47°12' W 001°37'0 0.0
2018-Feb-21 20:58N 47°12' W 001°37'0 0.0
2018-Feb-21 20:28N 47°12' W 001°37'0 0.0
2018-Feb-21 19:58N 47°12' W 001°37'0 0.0
2018-Feb-21 19:28N 47°12' W 001°37'0 0.0
2018-Feb-21 18:58N 47°12' W 001°37'0 0.0
2018-Feb-21 18:28N 47°12' W 001°37'0 0.0
2018-Feb-21 17:58N 47°12' W 001°37'0 0.0
2018-Feb-21 17:25N 47°12' W 001°37'0 0.0
2018-Feb-21 16:49N 47°12' W 001°37'0 0.0
2018-Feb-21 16:28N 47°12' W 001°37'0 0.0
2018-Feb-21 15:55N 47°12' W 001°37'0 0.0
2018-Feb-21 15:28N 47°12' W 001°37'0 0.0
2018-Feb-21 14:58N 47°12' W 001°37'0 0.0
2018-Feb-21 14:28N 47°12' W 001°37'0 0.0
2018-Feb-21 13:58N 47°12' W 001°37'0 0.0
2018-Feb-21 13:28N 47°12' W 001°37'0 0.0
2018-Feb-21 12:58N 47°12' W 001°37'0 0.0
2018-Feb-21 12:28N 47°12' W 001°37'0 0.0
2018-Feb-21 11:55N 47°12' W 001°37'0 0.0
2018-Feb-21 11:28N 47°12' W 001°37'0 0.0
2018-Feb-21 10:58N 47°12' W 001°37'0 0.0
2018-Feb-21 10:28N 47°12' W 001°37'0 0.0
2018-Feb-21 09:58N 47°12' W 001°37'0 0.0
2018-Feb-21 09:28N 47°12' W 001°37'0 0.0
2018-Feb-21 08:58N 47°12' W 001°37'0 0.0
2018-Feb-21 08:28N 47°12' W 001°37'0 0.0
2018-Feb-21 07:58N 47°12' W 001°37'0 0.0
2018-Feb-21 07:28N 47°12' W 001°37'0 0.0
2018-Feb-21 06:58N 47°12' W 001°37'0 0.0
2018-Feb-21 06:22N 47°12' W 001°37'0 0.0
2018-Feb-21 05:58N 47°12' W 001°37'0 0.0
2018-Feb-21 05:28N 47°12' W 001°37'0 0.0
2018-Feb-21 04:58N 47°12' W 001°37'0 0.0
2018-Feb-21 04:28N 47°12' W 001°37'0 0.0
2018-Feb-21 03:58N 47°12' W 001°37'0 0.0
2018-Feb-21 03:25N 47°12' W 001°37'0 0.0
2018-Feb-21 02:58N 47°12' W 001°37'0 0.0
2018-Feb-21 02:28N 47°12' W 001°37'0 0.0
2018-Feb-21 01:58N 47°12' W 001°37'0 0.0
2018-Feb-21 01:28N 47°12' W 001°37'0 0.0
2018-Feb-21 00:55N 47°12' W 001°37'0 0.0
2018-Feb-21 00:28N 47°12' W 001°37'0 0.0
2018-Feb-20 23:58N 47°12' W 001°37'0 0.0
2018-Feb-20 23:28N 47°12' W 001°37'0 0.0
2018-Feb-20 22:58N 47°12' W 001°37'0 0.0
2018-Feb-20 22:28N 47°12' W 001°37'0 0.0
2018-Feb-20 21:58N 47°12' W 001°37'0 0.0
2018-Feb-20 21:31N 47°12' W 001°37'0 0.0
2018-Feb-20 20:58N 47°12' W 001°37'0 0.0
2018-Feb-20 20:25N 47°12' W 001°37'0 0.0
2018-Feb-20 19:58N 47°12' W 001°37'0 0.0
2018-Feb-20 19:22N 47°12' W 001°37'0 0.0
2018-Feb-20 18:58N 47°12' W 001°37'0 0.0
2018-Feb-20 18:28N 47°12' W 001°37'0 0.0
2018-Feb-20 17:58N 47°12' W 001°37'0 0.0
2018-Feb-20 17:28N 47°12' W 001°37'0 0.0
2018-Feb-20 17:00N 47°12' W 001°37'0 0.0
2018-Feb-20 16:28N 47°12' W 001°37'0 0.0
2018-Feb-20 15:55N 47°12' W 001°37'0 0.0
2018-Feb-20 15:28N 47°12' W 001°37'0 0.0
2018-Feb-20 15:00N 47°12' W 001°37'0 0.0
2018-Feb-20 14:28N 47°12' W 001°37'0 0.0
2018-Feb-20 13:55N 47°12' W 001°37'0 0.0
2018-Feb-20 13:22N 47°12' W 001°37'0 0.0
2018-Feb-20 13:00N 47°12' W 001°37'0 0.0
2018-Feb-20 12:31N 47°12' W 001°37'0 0.0
2018-Feb-20 11:57N 47°12' W 001°37'0 0.0
2018-Feb-20 11:25N 47°12' W 001°37'0 0.0
2018-Feb-20 11:01N 47°12' W 001°37'0 0.0
2018-Feb-20 10:28N 47°12' W 001°37'0 0.0
2018-Feb-20 10:00N 47°12' W 001°37'0 0.0
2018-Feb-20 09:30N 47°12' W 001°37'0 0.0
2018-Feb-20 09:01N 47°12' W 001°37'0 0.0
2018-Feb-20 08:25N 47°12' W 001°37'0 0.0
2018-Feb-20 08:00N 47°12' W 001°37'0 0.0
2018-Feb-20 07:28N 47°12' W 001°37'0 0.0
2018-Feb-20 06:58N 47°12' W 001°37'0 0.0
2018-Feb-20 06:24N 47°12' W 001°37'0 0.0
2018-Feb-20 05:57N 47°12' W 001°37'0 0.0
2018-Feb-20 05:25N 47°12' W 001°37'0 0.0
2018-Feb-20 03:46N 47°12' W 001°37'0 0.0
2018-Feb-20 00:33N 47°12' W 001°37'0 0.0
2018-Feb-20 00:27N 47°12' W 001°37'0 0.0
2018-Feb-19 23:58N 47°12' W 001°37'0 0.0
2018-Feb-19 23:18N 47°12' W 001°37'0 0.0
2018-Feb-19 23:00N 47°12' W 001°37'0 0.0
2018-Feb-19 22:30N 47°12' W 001°37'0 0.0
2018-Feb-19 21:57N 47°12' W 001°37'0 0.0
2018-Feb-19 21:15N 47°12' W 001°37'0 0.0
2018-Feb-19 20:48N 47°12' W 001°37'0 0.0
2018-Feb-19 20:27N 47°12' W 001°37'0 0.0
2018-Feb-19 19:51N 47°12' W 001°37'0 0.0
2018-Feb-19 19:21N 47°12' W 001°37'0 0.0
2018-Feb-19 18:57N 47°12' W 001°37'0 0.0
2018-Feb-19 18:30N 47°12' W 001°37'0 0.0
2018-Feb-19 17:54N 47°12' W 001°37'0 0.0
2018-Feb-19 17:30N 47°12' W 001°37'0 0.0
2018-Feb-19 16:57N 47°12' W 001°37'0 0.0
2018-Feb-19 16:30N 47°12' W 001°37'0 0.0
2018-Feb-19 15:54N 47°12' W 001°37'0 0.0
2018-Feb-19 15:27N 47°12' W 001°37'0 0.0
2018-Feb-19 15:00N 47°12' W 001°37'0 0.0
2018-Feb-19 14:30N 47°12' W 001°37'0 0.0
2018-Feb-19 14:00N 47°12' W 001°37'0 0.0
2018-Feb-19 13:27N 47°12' W 001°37'0 0.0
2018-Feb-19 13:00N 47°12' W 001°37'0 0.0
2018-Feb-19 12:27N 47°12' W 001°37'0 0.0
2018-Feb-19 12:00N 47°12' W 001°37'0 0.0
2018-Feb-19 11:30N 47°12' W 001°37'0 0.0
2018-Feb-19 11:00N 47°12' W 001°37'0 0.0
2018-Feb-19 10:30N 47°12' W 001°37'0 0.0
2018-Feb-19 09:57N 47°12' W 001°37'0 0.0
2018-Feb-19 09:30N 47°12' W 001°37'0 0.0
2018-Feb-19 09:00N 47°12' W 001°37'0 0.0
2018-Feb-19 08:21N 47°12' W 001°37'0 0.0
2018-Feb-19 08:00N 47°12' W 001°37'0 0.0
2018-Feb-19 07:30N 47°12' W 001°37'0 0.0
2018-Feb-19 06:57N 47°12' W 001°37'0 0.0
2018-Feb-19 06:30N 47°12' W 001°37'0 0.0
2018-Feb-19 05:48N 47°12' W 001°37'0 0.0
2018-Feb-19 05:18N 47°12' W 001°37'0 0.0
2018-Feb-19 04:57N 47°12' W 001°37'0 0.0
2018-Feb-19 04:30N 47°12' W 001°37'0 0.0
2018-Feb-19 03:51N 47°12' W 001°37'0 0.0
2018-Feb-19 03:30N 47°12' W 001°37'0 0.0
2018-Feb-19 03:00N 47°12' W 001°37'0 0.0
2018-Feb-19 02:27N 47°12' W 001°37'0 0.0
2018-Feb-19 01:57N 47°12' W 001°37'0 0.0
2018-Feb-19 01:27N 47°12' W 001°37'0 0.0
2018-Feb-19 01:00N 47°12' W 001°37'0 0.0
2018-Feb-19 00:30N 47°12' W 001°37'0 0.0
2018-Feb-19 00:00N 47°12' W 001°37'0 0.0
2018-Feb-18 23:30N 47°12' W 001°37'0 0.0
2018-Feb-18 22:57N 47°12' W 001°37'0 0.0
2018-Feb-18 22:30N 47°12' W 001°37'0 0.0
2018-Feb-18 22:00N 47°12' W 001°37'0 0.0
2018-Feb-18 21:27N 47°12' W 001°37'0 0.0
2018-Feb-18 21:00N 47°12' W 001°37'0 0.0
2018-Feb-18 20:27N 47°12' W 001°37'0 0.0
2018-Feb-18 19:57N 47°12' W 001°37'0 0.0
2018-Feb-18 19:30N 47°12' W 001°37'0 0.0
2018-Feb-18 19:00N 47°12' W 001°37'0 0.0
2018-Feb-18 18:24N 47°12' W 001°37'0 0.0
2018-Feb-18 17:57N 47°12' W 001°37'0 0.0
2018-Feb-18 17:27N 47°12' W 001°37'0 0.0
2018-Feb-18 16:57N 47°12' W 001°37'0 0.0
2018-Feb-18 16:30N 47°12' W 001°37'0 0.0
2018-Feb-18 15:57N 47°12' W 001°37'0 0.0
2018-Feb-18 15:21N 47°12' W 001°37'0 0.0
2018-Feb-18 15:00N 47°12' W 001°37'0 0.0
2018-Feb-18 14:30N 47°12' W 001°37'0 0.0
2018-Feb-18 14:00N 47°12' W 001°37'0 0.0
2018-Feb-18 13:30N 47°12' W 001°37'0 0.0
2018-Feb-18 12:57N 47°12' W 001°37'0 0.0
2018-Feb-18 12:30N 47°12' W 001°37'0 0.0
2018-Feb-18 12:00N 47°12' W 001°37'0 0.0
2018-Feb-18 11:15N 47°12' W 001°37'0 0.0
2018-Feb-18 10:15N 47°12' W 001°37'0 0.0
2018-Feb-18 09:57N 47°12' W 001°37'0 0.0
2018-Feb-18 09:30N 47°12' W 001°37'0 0.0
2018-Feb-18 08:45N 47°12' W 001°37'0 0.0
2018-Feb-18 08:30N 47°12' W 001°37'0 0.0
2018-Feb-18 07:57N 47°12' W 001°37'0 0.0
2018-Feb-18 07:18N 47°12' W 001°37'0 0.0
2018-Feb-18 07:00N 47°12' W 001°37'0 0.0
2018-Feb-18 06:30N 47°12' W 001°37'0 0.0
2018-Feb-18 05:57N 47°12' W 001°37'0 0.0
2018-Feb-18 05:27N 47°12' W 001°37'0 0.0
2018-Feb-18 05:00N 47°12' W 001°37'0 0.0
2018-Feb-18 04:30N 47°12' W 001°37'0 0.0
2018-Feb-18 03:57N 47°12' W 001°37'0 0.0
2018-Feb-18 03:30N 47°12' W 001°37'0 0.0
2018-Feb-18 03:00N 47°12' W 001°37'0 0.0
2018-Feb-18 02:30N 47°12' W 001°37'0 0.0
2018-Feb-18 02:00N 47°12' W 001°37'0 0.0
2018-Feb-18 01:30N 47°12' W 001°37'0 0.0
2018-Feb-18 01:00N 47°12' W 001°37'0 0.0
2018-Feb-18 00:30N 47°12' W 001°37'0 0.0
2018-Feb-17 23:48N 47°12' W 001°37'0 0.0
2018-Feb-17 23:30N 47°12' W 001°37'0 0.0
2018-Feb-17 22:45N 47°12' W 001°37'0 0.0
2018-Feb-17 22:30N 47°12' W 001°37'0 0.0
2018-Feb-17 22:00N 47°12' W 001°37'0 0.0
2018-Feb-17 21:27N 47°12' W 001°37'0 0.0
2018-Feb-17 20:54N 47°12' W 001°37'0 0.0
2018-Feb-17 20:24N 47°12' W 001°37'0 0.0
2018-Feb-17 20:00N 47°12' W 001°37'0 0.0
2018-Feb-17 19:30N 47°12' W 001°37'0 0.0
2018-Feb-17 19:00N 47°12' W 001°37'0 0.0
2018-Feb-17 18:27N 47°12' W 001°37'0 0.0
2018-Feb-17 18:00N 47°12' W 001°37'0 0.0
2018-Feb-17 17:30N 47°12' W 001°37'0 0.0
2018-Feb-17 17:00N 47°12' W 001°37'0 0.0
2018-Feb-17 16:12N 47°12' W 001°37'0 0.0
2018-Feb-17 15:57N 47°12' W 001°37'0 0.0
2018-Feb-17 15:30N 47°12' W 001°37'0 0.0
2018-Feb-17 14:57N 47°12' W 001°37'0 0.0
2018-Feb-17 14:30N 47°12' W 001°37'0 0.0
2018-Feb-17 14:00N 47°12' W 001°37'0 0.0
2018-Feb-17 13:27N 47°12' W 001°37'0 0.0
2018-Feb-17 12:45N 47°12' W 001°37'0 0.0
2018-Feb-17 12:30N 47°12' W 001°37'0 0.0
2018-Feb-17 12:00N 47°12' W 001°37'0 0.0
2018-Feb-17 11:30N 47°12' W 001°37'0 0.0
2018-Feb-17 10:48N 47°12' W 001°37'0 0.0
2018-Feb-17 10:30N 47°12' W 001°37'0 0.0
2018-Feb-17 09:51N 47°12' W 001°37'0 0.1
2018-Feb-17 09:30N 47°12' W 001°37'0 0.0
2018-Feb-17 08:57N 47°12' W 001°37'0 0.0
2018-Feb-17 08:30N 47°12' W 001°37'0 0.0
2018-Feb-17 07:51N 47°12' W 001°37'0 0.1
2018-Feb-17 07:27N 47°12' W 001°37'0 0.1
2018-Feb-17 07:00N 47°12' W 001°37'0 0.0
2018-Feb-17 06:30N 47°12' W 001°37'0 0.0
2018-Feb-17 06:00N 47°12' W 001°37'1 1.4
2018-Feb-17 05:30N 47°12' W 001°38'0 0.1
2018-Feb-17 05:00N 47°12' W 001°38'0 0.0
2018-Feb-17 04:30N 47°12' W 001°38'0 0.0
2018-Feb-17 04:00N 47°12' W 001°38'1 1.8
2018-Feb-17 03:30N 47°12' W 001°39'4 8.8
2018-Feb-17 03:00N 47°12' W 001°46'5 9.9
2018-Feb-17 02:30N 47°15' W 001°51'611.0
2018-Feb-17 02:00N 47°17' W 001°59'611.1
2018-Feb-17 01:30N 47°18' W 002°07'611.6
2018-Feb-17 01:00N 47°15' W 002°14'611.6
2018-Feb-17 00:30N 47°10' W 002°19'611.3
2018-Feb-17 00:00N 47°05' W 002°24'510.5
2018-Feb-16 23:30N 47°02' W 002°30'3 1.6
2018-Feb-16 21:43N 47°00' W 002°33'1 3.1
2018-Feb-16 21:31N 47°01' W 002°32'510.7
2018-Feb-16 21:00N 47°04' W 002°26'611.3
2018-Feb-16 20:31N 47°08' W 002°20'611.3
2018-Feb-16 20:01N 47°13' W 002°16'612.6
2018-Feb-16 19:31N 47°17' W 002°10'713.3
2018-Feb-16 19:01N 47°17' W 001°60'612.8
2018-Feb-16 18:31N 47°15' W 001°51'611.6
2018-Feb-16 18:01N 47°12' W 001°43'4 7.5
2018-Feb-16 17:30N 47°12' W 001°38'0 0.0
2018-Feb-16 17:00N 47°12' W 001°38'0 0.0
2018-Feb-16 16:30N 47°12' W 001°38'0 0.1
2018-Feb-16 15:58N 47°12' W 001°38'3 6.7
2018-Feb-16 15:30N 47°12' W 001°42'5 9.6
2018-Feb-16 15:00N 47°13' W 001°49'510.7
2018-Feb-16 14:30N 47°17' W 001°55'611.5
2018-Feb-16 14:00N 47°18' W 002°03'611.8
2018-Feb-16 13:29N 47°16' W 002°12'612.0
2018-Feb-16 13:00N 47°11' W 002°18'510.4
2018-Feb-16 12:30N 47°07' W 002°22'510.5
2018-Feb-16 12:00N 47°04' W 002°28'7 9.2
2018-Feb-16 11:15N 46°59' W 002°36'1 1.5
2018-Feb-16 10:42N 46°60' W 002°34'1 2.0
2018-Feb-16 10:27N 46°60' W 002°34'1 1.8
2018-Feb-16 10:01N 47°00' W 002°33'4 8.6
2018-Feb-16 09:31N 47°03' W 002°28'510.1
2018-Feb-16 09:01N 47°07' W 002°23'5 9.8
2018-Feb-16 08:30N 47°11' W 002°18'611.0
2018-Feb-16 08:00N 47°15' W 002°13'612.1
2018-Feb-16 07:31N 47°18' W 002°06'713.3
2018-Feb-16 07:01N 47°17' W 001°56'612.0
2018-Feb-16 06:30N 47°13' W 001°49'611.7
2018-Feb-16 06:01N 47°12' W 001°41'3 5.2
2018-Feb-16 05:29N 47°12' W 001°37'0 0.0
2018-Feb-16 04:53N 47°12' W 001°37'0 0.0
2018-Feb-16 04:29N 47°12' W 001°37'0 0.0
2018-Feb-16 03:56N 47°12' W 001°37'0 0.0
2018-Feb-16 03:29N 47°12' W 001°37'0 0.0
2018-Feb-16 02:59N 47°12' W 001°37'0 0.0
2018-Feb-16 02:29N 47°12' W 001°37'0 0.0
2018-Feb-16 01:59N 47°12' W 001°37'0 0.0
2018-Feb-16 01:29N 47°12' W 001°37'0 0.0
2018-Feb-16 00:59N 47°12' W 001°37'0 0.0
2018-Feb-16 00:29N 47°12' W 001°37'0 0.0
2018-Feb-15 23:50N 47°12' W 001°37'0 0.0
2018-Feb-15 23:29N 47°12' W 001°37'0 0.0
2018-Feb-15 22:59N 47°12' W 001°37'0 0.0
2018-Feb-15 22:26N 47°12' W 001°37'0 0.0
2018-Feb-15 21:50N 47°12' W 001°37'0 0.0
2018-Feb-15 21:16N 47°12' W 001°37'0 0.0
2018-Feb-15 20:53N 47°12' W 001°37'0 0.0
2018-Feb-15 20:29N 47°12' W 001°37'0 0.0
2018-Feb-15 19:56N 47°12' W 001°37'0 0.0
2018-Feb-15 19:29N 47°12' W 001°37'0 0.0
2018-Feb-15 18:59N 47°12' W 001°37'0 0.0
2018-Feb-15 18:26N 47°12' W 001°37'0 0.0
2018-Feb-15 17:59N 47°12' W 001°37'0 0.0
2018-Feb-15 17:23N 47°12' W 001°37'0 0.0
2018-Feb-15 16:59N 47°12' W 001°37'0 0.0
2018-Feb-15 16:29N 47°12' W 001°37'0 0.0
2018-Feb-15 15:56N 47°12' W 001°37'0 0.0
2018-Feb-15 15:28N 47°12' W 001°37'0 0.0
2018-Feb-15 14:59N 47°12' W 001°37'0 0.0
2018-Feb-15 14:29N 47°12' W 001°37'0 0.0
2018-Feb-15 13:35N 47°12' W 001°37'0 0.1
2018-Feb-15 13:29N 47°12' W 001°37'0 0.0
2018-Feb-15 12:56N 47°12' W 001°37'0 0.0
2018-Feb-15 12:23N 47°12' W 001°37'0 0.0
2018-Feb-15 11:58N 47°12' W 001°37'0 0.0
2018-Feb-15 11:29N 47°12' W 001°37'0 0.0
2018-Feb-15 10:58N 47°12' W 001°37'0 0.0
2018-Feb-15 10:28N 47°12' W 001°37'0 0.0
2018-Feb-15 09:56N 47°12' W 001°37'0 0.0
2018-Feb-15 09:28N 47°12' W 001°37'0 0.0
2018-Feb-15 08:52N 47°12' W 001°37'0 0.0
2018-Feb-15 08:28N 47°12' W 001°37'0 0.0
2018-Feb-15 07:58N 47°12' W 001°37'0 0.0
2018-Feb-15 07:28N 47°12' W 001°37'0 0.0
2018-Feb-15 06:58N 47°12' W 001°37'0 0.0
2018-Feb-15 06:22N 47°12' W 001°37'0 0.0
2018-Feb-15 04:55N 47°12' W 001°37'0 0.0
2018-Feb-15 02:58N 47°12' W 001°37'0 0.0
2018-Feb-15 01:19N 47°12' W 001°37'0 0.0
2018-Feb-15 00:58N 47°12' W 001°37'0 0.0
2018-Feb-15 00:28N 47°12' W 001°37'0 0.0
2018-Feb-14 23:43N 47°12' W 001°37'0 0.0
2018-Feb-14 23:28N 47°12' W 001°37'0 0.0
2018-Feb-14 22:55N 47°12' W 001°37'0 0.0
2018-Feb-14 22:13N 47°12' W 001°37'0 0.0
2018-Feb-14 21:43N 47°12' W 001°37'0 0.0
2018-Feb-14 21:28N 47°12' W 001°37'0 0.0
2018-Feb-14 20:52N 47°12' W 001°37'0 0.0
2018-Feb-14 20:28N 47°12' W 001°37'0 0.0
2018-Feb-14 19:58N 47°12' W 001°37'0 0.0
2018-Feb-14 19:07N 47°12' W 001°37'0 0.0
2018-Feb-14 18:55N 47°12' W 001°37'0 0.0
2018-Feb-14 18:22N 47°12' W 001°37'0 0.0
2018-Feb-14 17:52N 47°12' W 001°37'0 0.0
2018-Feb-14 17:28N 47°12' W 001°37'0 0.0
2018-Feb-14 16:58N 47°12' W 001°37'0 0.0
2018-Feb-14 16:28N 47°12' W 001°37'0 0.0
2018-Feb-14 15:55N 47°12' W 001°37'0 0.0
2018-Feb-14 15:22N 47°12' W 001°37'0 0.0
2018-Feb-14 14:55N 47°12' W 001°37'0 0.0
2018-Feb-14 14:28N 47°12' W 001°37'0 0.0
2018-Feb-14 13:52N 47°12' W 001°37'0 0.0
2018-Feb-14 13:13N 47°12' W 001°37'0 0.0
2018-Feb-14 12:58N 47°12' W 001°37'0 0.0
2018-Feb-14 12:19N 47°12' W 001°37'0 0.0
2018-Feb-14 11:52N 47°12' W 001°37'0 0.0
2018-Feb-14 11:13N 47°12' W 001°37'0 0.0
2018-Feb-14 10:43N 47°12' W 001°37'0 0.0
2018-Feb-14 10:25N 47°12' W 001°37'0 0.0
2018-Feb-14 09:58N 47°12' W 001°37'0 0.0
2018-Feb-14 09:28N 47°12' W 001°37'0 0.0
2018-Feb-14 08:58N 47°12' W 001°37'0 0.0
2018-Feb-14 08:28N 47°12' W 001°37'0 0.0
2018-Feb-14 07:58N 47°12' W 001°37'0 0.0
2018-Feb-14 07:25N 47°12' W 001°37'0 0.0
2018-Feb-14 06:58N 47°12' W 001°37'0 0.0
2018-Feb-14 06:28N 47°12' W 001°37'0 0.0
2018-Feb-14 05:55N 47°12' W 001°37'0 0.0
2018-Feb-14 05:25N 47°12' W 001°37'0 0.0
2018-Feb-14 04:58N 47°12' W 001°37'0 0.0
2018-Feb-14 04:28N 47°12' W 001°37'0 0.0
2018-Feb-14 03:58N 47°12' W 001°37'0 0.0
2018-Feb-14 03:28N 47°12' W 001°37'0 0.0
2018-Feb-14 02:58N 47°12' W 001°37'0 0.0
2018-Feb-14 02:28N 47°12' W 001°37'0 0.0
2018-Feb-14 01:55N 47°12' W 001°37'0 0.0
2018-Feb-14 01:28N 47°12' W 001°37'0 0.0
2018-Feb-14 00:58N 47°12' W 001°37'0 0.0
2018-Feb-14 00:28N 47°12' W 001°37'0 0.0
2018-Feb-13 23:55N 47°12' W 001°37'0 0.0
2018-Feb-13 23:28N 47°12' W 001°37'0 0.0
2018-Feb-13 22:58N 47°12' W 001°37'0 0.0
2018-Feb-13 22:28N 47°12' W 001°37'0 0.0
2018-Feb-13 21:55N 47°12' W 001°37'0 0.0
2018-Feb-13 21:19N 47°12' W 001°37'0 0.0
2018-Feb-13 20:58N 47°12' W 001°37'0 0.0
2018-Feb-13 20:28N 47°12' W 001°37'0 0.0
2018-Feb-13 19:58N 47°12' W 001°37'0 0.0
2018-Feb-13 19:28N 47°12' W 001°37'0 0.0
2018-Feb-13 18:55N 47°12' W 001°37'0 0.0
2018-Feb-13 18:28N 47°12' W 001°37'0 0.0
2018-Feb-13 17:55N 47°12' W 001°37'0 0.0
2018-Feb-13 17:25N 47°12' W 001°37'0 0.0
2018-Feb-13 16:58N 47°12' W 001°37'0 0.0
2018-Feb-13 16:28N 47°12' W 001°37'0 0.0
2018-Feb-13 15:58N 47°12' W 001°37'0 0.0
2018-Feb-13 15:25N 47°12' W 001°37'0 0.0
2018-Feb-13 14:55N 47°12' W 001°37'0 0.0
2018-Feb-13 14:13N 47°12' W 001°37'0 0.0
2018-Feb-13 13:58N 47°12' W 001°37'0 0.0
2018-Feb-13 13:25N 47°12' W 001°37'0 0.0
2018-Feb-13 12:58N 47°12' W 001°37'  
Track history (hours):
 
Tides and Currents Weather Stations Pressure Air Temp Water Temp Dewpoint Dewpoint Depression Visibility Wind Speed Wind Dir Waves Ship Positions

St Pierre

Last reported at 2018-Feb-23 12:29 UTC. Time now 2018-Feb-23 12:54 UTC.
Position N 47°12' W 001°37'.

Length 84 m; draft 6.1 m.

Type: Cargo ship. MMSI: 228024800.

Date/timePositionNaut miles runAvg speedWind from/ knotsBaromVisibWave heightAir tempDewpointWater temp
2018-Feb-23 12:29N 47°12' W 001°37'0 0.0
2018-Feb-23 11:59N 47°12' W 001°37'1 1.6
2018-Feb-23 11:29N 47°12' W 001°38'0 0.0
2018-Feb-23 10:59N 47°12' W 001°38'0 0.0
2018-Feb-23 10:29N 47°12' W 001°38'0 0.0
2018-Feb-23 09:59N 47°12' W 001°38'2 4.4
2018-Feb-23 09:30N 47°12' W 001°41'4 7.4
2018-Feb-23 09:00N 47°12' W 001°46'4 7.8
2018-Feb-23 08:30N 47°15' W 001°51'4 8.6
2018-Feb-23 08:00N 47°17' W 001°56'5 9.4
2018-Feb-23 07:30N 47°18' W 002°03'5 9.9
2018-Feb-23 07:00N 47°17' W 002°10'510.5
2018-Feb-23 06:30N 47°14' W 002°16'4 7.6
2018-Feb-23 06:00N 47°10' W 002°18'4 6.9
2018-Feb-23 05:30N 47°07' W 002°21'4 7.3
2018-Feb-23 05:00N 47°05' W 002°25'4 7.1
2018-Feb-23 04:30N 47°03' W 002°29'3 7.0
2018-Feb-23 04:00N 47°00' W 002°33'1 0.9
2018-Feb-23 02:29N 46°59' W 002°34'1 1.1
2018-Feb-23 02:00N 46°60' W 002°34'3 6.9
2018-Feb-23 01:30N 47°02' W 002°30'612.0
2018-Feb-23 01:00N 47°06' W 002°24'612.2
2018-Feb-23 00:30N 47°11' W 002°18'613.0
2018-Feb-23 00:00N 47°16' W 002°12'613.0
2018-Feb-22 23:31N 47°18' W 002°03'713.4
2018-Feb-22 23:00N 47°16' W 001°53'612.6
2018-Feb-22 22:30N 47°12' W 001°46'610.4
2018-Feb-22 21:58N 47°12' W 001°38'0 0.0
2018-Feb-22 21:28N 47°12' W 001°38'0 0.0
2018-Feb-22 20:58N 47°12' W 001°38'0 0.0
2018-Feb-22 20:28N 47°12' W 001°38'0 0.2
2018-Feb-22 20:00N 47°12' W 001°38'4 7.5
2018-Feb-22 19:30N 47°12' W 001°43'4 8.9
2018-Feb-22 19:00N 47°14' W 001°50'5 9.5
2018-Feb-22 18:31N 47°17' W 001°55'510.7
2018-Feb-22 18:00N 47°18' W 002°02'510.9
2018-Feb-22 17:30N 47°17' W 002°10'611.3
2018-Feb-22 17:01N 47°13' W 002°16'510.7
2018-Feb-22 16:30N 47°08' W 002°20'510.7
2018-Feb-22 16:00N 47°05' W 002°26'8 9.7
2018-Feb-22 15:13N 46°59' W 002°34'0 0.2
2018-Feb-22 12:40N 46°59' W 002°34'0 1.1
2018-Feb-22 12:25N 46°59' W 002°34'1 2.4
2018-Feb-22 12:00N 46°60' W 002°33'612.6
2018-Feb-22 11:30N 47°04' W 002°26'713.4
2018-Feb-22 11:00N 47°09' W 002°19'713.1
2018-Feb-22 10:30N 47°15' W 002°14'613.0
2018-Feb-22 10:00N 47°18' W 002°06'713.4
2018-Feb-22 09:30N 47°17' W 001°57'611.0
2018-Feb-22 09:00N 47°14' W 001°50'611.6
2018-Feb-22 08:30N 47°12' W 001°42'3 6.2
2018-Feb-22 07:58N 47°12' W 001°37'0 0.0
2018-Feb-22 07:16N 47°12' W 001°37'0 0.0
2018-Feb-22 06:52N 47°12' W 001°37'0 0.0
2018-Feb-22 06:28N 47°12' W 001°37'0 0.0
2018-Feb-22 05:58N 47°12' W 001°37'0 0.0
2018-Feb-22 05:28N 47°12' W 001°37'0 0.0
2018-Feb-22 04:58N 47°12' W 001°37'0 0.0
2018-Feb-22 04:28N 47°12' W 001°37'0 0.0
2018-Feb-22 03:58N 47°12' W 001°37'0 0.0
2018-Feb-22 03:28N 47°12' W 001°37'0 0.0
2018-Feb-22 02:58N 47°12' W 001°37'0 0.0
2018-Feb-22 02:28N 47°12' W 001°37'0 0.0
2018-Feb-22 01:58N 47°12' W 001°37'0 0.0
2018-Feb-22 01:28N 47°12' W 001°37'0 0.0
2018-Feb-22 00:55N 47°12' W 001°37'0 0.0
2018-Feb-22 00:25N 47°12' W 001°37'0 0.0
2018-Feb-21 23:58N 47°12' W 001°37'0 0.0
2018-Feb-21 23:28N 47°12' W 001°37'0 0.0
2018-Feb-21 22:58N 47°12' W 001°37'0 0.0
2018-Feb-21 22:28N 47°12' W 001°37'0 0.0
2018-Feb-21 21:58N 47°12' W 001°37'0 0.0
2018-Feb-21 21:28N 47°12' W 001°37'0 0.0
2018-Feb-21 20:58N 47°12' W 001°37'0 0.0
2018-Feb-21 20:28N 47°12' W 001°37'0 0.0
2018-Feb-21 19:58N 47°12' W 001°37'0 0.0
2018-Feb-21 19:28N 47°12' W 001°37'0 0.0
2018-Feb-21 18:58N 47°12' W 001°37'0 0.0
2018-Feb-21 18:28N 47°12' W 001°37'0 0.0
2018-Feb-21 17:58N 47°12' W 001°37'0 0.0
2018-Feb-21 17:25N 47°12' W 001°37'0 0.0
2018-Feb-21 16:49N 47°12' W 001°37'0 0.0
2018-Feb-21 16:28N 47°12' W 001°37'0 0.0
2018-Feb-21 15:55N 47°12' W 001°37'0 0.0
2018-Feb-21 15:28N 47°12' W 001°37'0 0.0
2018-Feb-21 14:58N 47°12' W 001°37'0 0.0
2018-Feb-21 14:28N 47°12' W 001°37'0 0.0
2018-Feb-21 13:58N 47°12' W 001°37'0 0.0
2018-Feb-21 13:28N 47°12' W 001°37'0 0.0
2018-Feb-21 12:58N 47°12' W 001°37'0 0.0
2018-Feb-21 12:28N 47°12' W 001°37'0 0.0
2018-Feb-21 11:55N 47°12' W 001°37'0 0.0
2018-Feb-21 11:28N 47°12' W 001°37'0 0.0
2018-Feb-21 10:58N 47°12' W 001°37'0 0.0
2018-Feb-21 10:28N 47°12' W 001°37'0 0.0
2018-Feb-21 09:58N 47°12' W 001°37'0 0.0
2018-Feb-21 09:28N 47°12' W 001°37'0 0.0
2018-Feb-21 08:58N 47°12' W 001°37'0 0.0
2018-Feb-21 08:28N 47°12' W 001°37'0 0.0
2018-Feb-21 07:58N 47°12' W 001°37'0 0.0
2018-Feb-21 07:28N 47°12' W 001°37'0 0.0
2018-Feb-21 06:58N 47°12' W 001°37'0 0.0
2018-Feb-21 06:22N 47°12' W 001°37'0 0.0
2018-Feb-21 05:58N 47°12' W 001°37'0 0.0
2018-Feb-21 05:28N 47°12' W 001°37'0 0.0
2018-Feb-21 04:58N 47°12' W 001°37'0 0.0
2018-Feb-21 04:28N 47°12' W 001°37'0 0.0
2018-Feb-21 03:58N 47°12' W 001°37'0 0.0
2018-Feb-21 03:25N 47°12' W 001°37'0 0.0
2018-Feb-21 02:58N 47°12' W 001°37'0 0.0
2018-Feb-21 02:28N 47°12' W 001°37'0 0.0
2018-Feb-21 01:58N 47°12' W 001°37'0 0.0
2018-Feb-21 01:28N 47°12' W 001°37'0 0.0
2018-Feb-21 00:55N 47°12' W 001°37'0 0.0
2018-Feb-21 00:28N 47°12' W 001°37'0 0.0
2018-Feb-20 23:58N 47°12' W 001°37'0 0.0
2018-Feb-20 23:28N 47°12' W 001°37'0 0.0
2018-Feb-20 22:58N 47°12' W 001°37'0 0.0
2018-Feb-20 22:28N 47°12' W 001°37'0 0.0
2018-Feb-20 21:58N 47°12' W 001°37'0 0.0
2018-Feb-20 21:31N 47°12' W 001°37'0 0.0
2018-Feb-20 20:58N 47°12' W 001°37'0 0.0
2018-Feb-20 20:25N 47°12' W 001°37'0 0.0
2018-Feb-20 19:58N 47°12' W 001°37'0 0.0
2018-Feb-20 19:22N 47°12' W 001°37'0 0.0
2018-Feb-20 18:58N 47°12' W 001°37'0 0.0
2018-Feb-20 18:28N 47°12' W 001°37'0 0.0
2018-Feb-20 17:58N 47°12' W 001°37'0 0.0
2018-Feb-20 17:28N 47°12' W 001°37'0 0.0
2018-Feb-20 17:00N 47°12' W 001°37'0 0.0
2018-Feb-20 16:28N 47°12' W 001°37'0 0.0
2018-Feb-20 15:55N 47°12' W 001°37'0 0.0
2018-Feb-20 15:28N 47°12' W 001°37'0 0.0
2018-Feb-20 15:00N 47°12' W 001°37'0 0.0
2018-Feb-20 14:28N 47°12' W 001°37'0 0.0
2018-Feb-20 13:55N 47°12' W 001°37'0 0.0
2018-Feb-20 13:22N 47°12' W 001°37'0 0.0
2018-Feb-20 13:00N 47°12' W 001°37'0 0.0
2018-Feb-20 12:31N 47°12' W 001°37'0 0.0
2018-Feb-20 11:57N 47°12' W 001°37'0 0.0
2018-Feb-20 11:25N 47°12' W 001°37'0 0.0
2018-Feb-20 11:01N 47°12' W 001°37'0 0.0
2018-Feb-20 10:28N 47°12' W 001°37'0 0.0
2018-Feb-20 10:00N 47°12' W 001°37'0 0.0
2018-Feb-20 09:30N 47°12' W 001°37'0 0.0
2018-Feb-20 09:01N 47°12' W 001°37'0 0.0
2018-Feb-20 08:25N 47°12' W 001°37'0 0.0
2018-Feb-20 08:00N 47°12' W 001°37'0 0.0
2018-Feb-20 07:28N 47°12' W 001°37'0 0.0
2018-Feb-20 06:58N 47°12' W 001°37'0 0.0
2018-Feb-20 06:24N 47°12' W 001°37'0 0.0
2018-Feb-20 05:57N 47°12' W 001°37'0 0.0
2018-Feb-20 05:25N 47°12' W 001°37'0 0.0
2018-Feb-20 03:46N 47°12' W 001°37'0 0.0
2018-Feb-20 00:33N 47°12' W 001°37'0 0.0
2018-Feb-20 00:27N 47°12' W 001°37'0 0.0
2018-Feb-19 23:58N 47°12' W 001°37'0 0.0
2018-Feb-19 23:18N 47°12' W 001°37'0 0.0
2018-Feb-19 23:00N 47°12' W 001°37'0 0.0
2018-Feb-19 22:30N 47°12' W 001°37'0 0.0
2018-Feb-19 21:57N 47°12' W 001°37'0 0.0
2018-Feb-19 21:15N 47°12' W 001°37'0 0.0
2018-Feb-19 20:48N 47°12' W 001°37'0 0.0
2018-Feb-19 20:27N 47°12' W 001°37'0 0.0
2018-Feb-19 19:51N 47°12' W 001°37'0 0.0
2018-Feb-19 19:21N 47°12' W 001°37'0 0.0
2018-Feb-19 18:57N 47°12' W 001°37'0 0.0
2018-Feb-19 18:30N 47°12' W 001°37'0 0.0
2018-Feb-19 17:54N 47°12' W 001°37'0 0.0
2018-Feb-19 17:30N 47°12' W 001°37'0 0.0
2018-Feb-19 16:57N 47°12' W 001°37'0 0.0
2018-Feb-19 16:30N 47°12' W 001°37'0 0.0
2018-Feb-19 15:54N 47°12' W 001°37'0 0.0
2018-Feb-19 15:27N 47°12' W 001°37'0 0.0
2018-Feb-19 15:00N 47°12' W 001°37'0 0.0
2018-Feb-19 14:30N 47°12' W 001°37'0 0.0
2018-Feb-19 14:00N 47°12' W 001°37'0 0.0
2018-Feb-19 13:27N 47°12' W 001°37'0 0.0
2018-Feb-19 13:00N 47°12' W 001°37'0 0.0
2018-Feb-19 12:27N 47°12' W 001°37'0 0.0
2018-Feb-19 12:00N 47°12' W 001°37'0 0.0
2018-Feb-19 11:30N 47°12' W 001°37'0 0.0
2018-Feb-19 11:00N 47°12' W 001°37'0 0.0
2018-Feb-19 10:30N 47°12' W 001°37'0 0.0
2018-Feb-19 09:57N 47°12' W 001°37'0 0.0
2018-Feb-19 09:30N 47°12' W 001°37'0 0.0
2018-Feb-19 09:00N 47°12' W 001°37'0 0.0
2018-Feb-19 08:21N 47°12' W 001°37'0 0.0
2018-Feb-19 08:00N 47°12' W 001°37'0 0.0
2018-Feb-19 07:30N 47°12' W 001°37'0 0.0
2018-Feb-19 06:57N 47°12' W 001°37'0 0.0
2018-Feb-19 06:30N 47°12' W 001°37'0 0.0
2018-Feb-19 05:48N 47°12' W 001°37'0 0.0
2018-Feb-19 05:18N 47°12' W 001°37'0 0.0
2018-Feb-19 04:57N 47°12' W 001°37'0 0.0
2018-Feb-19 04:30N 47°12' W 001°37'0 0.0
2018-Feb-19 03:51N 47°12' W 001°37'0 0.0
2018-Feb-19 03:30N 47°12' W 001°37'0 0.0
2018-Feb-19 03:00N 47°12' W 001°37'0 0.0
2018-Feb-19 02:27N 47°12' W 001°37'0 0.0
2018-Feb-19 01:57N 47°12' W 001°37'0 0.0
2018-Feb-19 01:27N 47°12' W 001°37'0 0.0
2018-Feb-19 01:00N 47°12' W 001°37'0 0.0
2018-Feb-19 00:30N 47°12' W 001°37'0 0.0
2018-Feb-19 00:00N 47°12' W 001°37'0 0.0
2018-Feb-18 23:30N 47°12' W 001°37'0 0.0
2018-Feb-18 22:57N 47°12' W 001°37'0 0.0
2018-Feb-18 22:30N 47°12' W 001°37'0 0.0
2018-Feb-18 22:00N 47°12' W 001°37'0 0.0
2018-Feb-18 21:27N 47°12' W 001°37'0 0.0
2018-Feb-18 21:00N 47°12' W 001°37'0 0.0
2018-Feb-18 20:27N 47°12' W 001°37'0 0.0
2018-Feb-18 19:57N 47°12' W 001°37'0 0.0
2018-Feb-18 19:30N 47°12' W 001°37'0 0.0
2018-Feb-18 19:00N 47°12' W 001°37'0 0.0
2018-Feb-18 18:24N 47°12' W 001°37'0 0.0
2018-Feb-18 17:57N 47°12' W 001°37'0 0.0
2018-Feb-18 17:27N 47°12' W 001°37'0 0.0
2018-Feb-18 16:57N 47°12' W 001°37'0 0.0
2018-Feb-18 16:30N 47°12' W 001°37'0 0.0
2018-Feb-18 15:57N 47°12' W 001°37'0 0.0
2018-Feb-18 15:21N 47°12' W 001°37'0 0.0
2018-Feb-18 15:00N 47°12' W 001°37'0 0.0
2018-Feb-18 14:30N 47°12' W 001°37'0 0.0
2018-Feb-18 14:00N 47°12' W 001°37'0 0.0
2018-Feb-18 13:30N 47°12' W 001°37'0 0.0
2018-Feb-18 12:57N 47°12' W 001°37'0 0.0
2018-Feb-18 12:30N 47°12' W 001°37'0 0.0
2018-Feb-18 12:00N 47°12' W 001°37'0 0.0
2018-Feb-18 11:15N 47°12' W 001°37'0 0.0
2018-Feb-18 10:15N 47°12' W 001°37'0 0.0
2018-Feb-18 09:57N 47°12' W 001°37'0 0.0
2018-Feb-18 09:30N 47°12' W 001°37'0 0.0
2018-Feb-18 08:45N 47°12' W 001°37'0 0.0
2018-Feb-18 08:30N 47°12' W 001°37'0 0.0
2018-Feb-18 07:57N 47°12' W 001°37'0 0.0
2018-Feb-18 07:18N 47°12' W 001°37'0 0.0
2018-Feb-18 07:00N 47°12' W 001°37'0 0.0
2018-Feb-18 06:30N 47°12' W 001°37'0 0.0
2018-Feb-18 05:57N 47°12' W 001°37'0 0.0
2018-Feb-18 05:27N 47°12' W 001°37'0 0.0
2018-Feb-18 05:00N 47°12' W 001°37'0 0.0
2018-Feb-18 04:30N 47°12' W 001°37'0 0.0
2018-Feb-18 03:57N 47°12' W 001°37'0 0.0
2018-Feb-18 03:30N 47°12' W 001°37'0 0.0
2018-Feb-18 03:00N 47°12' W 001°37'0 0.0
2018-Feb-18 02:30N 47°12' W 001°37'0 0.0
2018-Feb-18 02:00N 47°12' W 001°37'0 0.0
2018-Feb-18 01:30N 47°12' W 001°37'0 0.0
2018-Feb-18 01:00N 47°12' W 001°37'0 0.0
2018-Feb-18 00:30N 47°12' W 001°37'0 0.0
2018-Feb-17 23:48N 47°12' W 001°37'0 0.0
2018-Feb-17 23:30N 47°12' W 001°37'0 0.0
2018-Feb-17 22:45N 47°12' W 001°37'0 0.0
2018-Feb-17 22:30N 47°12' W 001°37'0 0.0
2018-Feb-17 22:00N 47°12' W 001°37'0 0.0
2018-Feb-17 21:27N 47°12' W 001°37'0 0.0
2018-Feb-17 20:54N 47°12' W 001°37'0 0.0
2018-Feb-17 20:24N 47°12' W 001°37'0 0.0
2018-Feb-17 20:00N 47°12' W 001°37'0 0.0
2018-Feb-17 19:30N 47°12' W 001°37'0 0.0
2018-Feb-17 19:00N 47°12' W 001°37'0 0.0
2018-Feb-17 18:27N 47°12' W 001°37'0 0.0
2018-Feb-17 18:00N 47°12' W 001°37'0 0.0
2018-Feb-17 17:30N 47°12' W 001°37'0 0.0
2018-Feb-17 17:00N 47°12' W 001°37'0 0.0
2018-Feb-17 16:12N 47°12' W 001°37'0 0.0
2018-Feb-17 15:57N 47°12' W 001°37'0 0.0
2018-Feb-17 15:30N 47°12' W 001°37'0 0.0
2018-Feb-17 14:57N 47°12' W 001°37'0 0.0
2018-Feb-17 14:30N 47°12' W 001°37'0 0.0
2018-Feb-17 14:00N 47°12' W 001°37'0 0.0
2018-Feb-17 13:27N 47°12' W 001°37'0 0.0
2018-Feb-17 12:45N 47°12' W 001°37'0 0.0
2018-Feb-17 12:30N 47°12' W 001°37'0 0.0
2018-Feb-17 12:00N 47°12' W 001°37'0 0.0
2018-Feb-17 11:30N 47°12' W 001°37'0 0.0
2018-Feb-17 10:48N 47°12' W 001°37'0 0.0
2018-Feb-17 10:30N 47°12' W 001°37'0 0.0
2018-Feb-17 09:51N 47°12' W 001°37'0 0.1
2018-Feb-17 09:30N 47°12' W 001°37'0 0.0
2018-Feb-17 08:57N 47°12' W 001°37'0 0.0
2018-Feb-17 08:30N 47°12' W 001°37'0 0.0
2018-Feb-17 07:51N 47°12' W 001°37'0 0.1
2018-Feb-17 07:27N 47°12' W 001°37'0 0.1
2018-Feb-17 07:00N 47°12' W 001°37'0 0.0
2018-Feb-17 06:30N 47°12' W 001°37'0 0.0
2018-Feb-17 06:00N 47°12' W 001°37'1 1.4
2018-Feb-17 05:30N 47°12' W 001°38'0 0.1
2018-Feb-17 05:00N 47°12' W 001°38'0 0.0
2018-Feb-17 04:30N 47°12' W 001°38'0 0.0
2018-Feb-17 04:00N 47°12' W 001°38'1 1.8
2018-Feb-17 03:30N 47°12' W 001°39'4 8.8
2018-Feb-17 03:00N 47°12' W 001°46'5 9.9
2018-Feb-17 02:30N 47°15' W 001°51'611.0
2018-Feb-17 02:00N 47°17' W 001°59'611.1
2018-Feb-17 01:30N 47°18' W 002°07'611.6
2018-Feb-17 01:00N 47°15' W 002°14'611.6
2018-Feb-17 00:30N 47°10' W 002°19'611.3
2018-Feb-17 00:00N 47°05' W 002°24'510.5
2018-Feb-16 23:30N 47°02' W 002°30'3 1.6
2018-Feb-16 21:43N 47°00' W 002°33'1 3.1
2018-Feb-16 21:31N 47°01' W 002°32'510.7
2018-Feb-16 21:00N 47°04' W 002°26'611.3
2018-Feb-16 20:31N 47°08' W 002°20'611.3
2018-Feb-16 20:01N 47°13' W 002°16'612.6
2018-Feb-16 19:31N 47°17' W 002°10'713.3
2018-Feb-16 19:01N 47°17' W 001°60'612.8
2018-Feb-16 18:31N 47°15' W 001°51'611.6
2018-Feb-16 18:01N 47°12' W 001°43'4 7.5
2018-Feb-16 17:30N 47°12' W 001°38'0 0.0
2018-Feb-16 17:00N 47°12' W 001°38'0 0.0
2018-Feb-16 16:30N 47°12' W 001°38'0 0.1
2018-Feb-16 15:58N 47°12' W 001°38'3 6.7
2018-Feb-16 15:30N 47°12' W 001°42'5 9.6
2018-Feb-16 15:00N 47°13' W 001°49'510.7
2018-Feb-16 14:30N 47°17' W 001°55'611.5
2018-Feb-16 14:00N 47°18' W 002°03'611.8
2018-Feb-16 13:29N 47°16' W 002°12'612.0
2018-Feb-16 13:00N 47°11' W 002°18'510.4
2018-Feb-16 12:30N 47°07' W 002°22'510.5
2018-Feb-16 12:00N 47°04' W 002°28'7 9.2
2018-Feb-16 11:15N 46°59' W 002°36'1 1.5
2018-Feb-16 10:42N 46°60' W 002°34'1 2.0
2018-Feb-16 10:27N 46°60' W 002°34'1 1.8
2018-Feb-16 10:01N 47°00' W 002°33'4 8.6
2018-Feb-16 09:31N 47°03' W 002°28'510.1
2018-Feb-16 09:01N 47°07' W 002°23'5 9.8
2018-Feb-16 08:30N 47°11' W 002°18'611.0
2018-Feb-16 08:00N 47°15' W 002°13'612.1
2018-Feb-16 07:31N 47°18' W 002°06'713.3
2018-Feb-16 07:01N 47°17' W 001°56'612.0
2018-Feb-16 06:30N 47°13' W 001°49'611.7
2018-Feb-16 06:01N 47°12' W 001°41'3 5.2
2018-Feb-16 05:29N 47°12' W 001°37'0 0.0
2018-Feb-16 04:53N 47°12' W 001°37'0 0.0
2018-Feb-16 04:29N 47°12' W 001°37'0 0.0
2018-Feb-16 03:56N 47°12' W 001°37'0 0.0
2018-Feb-16 03:29N 47°12' W 001°37'0 0.0
2018-Feb-16 02:59N 47°12' W 001°37'0 0.0
2018-Feb-16 02:29N 47°12' W 001°37'0 0.0
2018-Feb-16 01:59N 47°12' W 001°37'0 0.0
2018-Feb-16 01:29N 47°12' W 001°37'0 0.0
2018-Feb-16 00:59N 47°12' W 001°37'0 0.0
2018-Feb-16 00:29N 47°12' W 001°37'0 0.0
2018-Feb-15 23:50N 47°12' W 001°37'0 0.0
2018-Feb-15 23:29N 47°12' W 001°37'0 0.0
2018-Feb-15 22:59N 47°12' W 001°37'0 0.0
2018-Feb-15 22:26N 47°12' W 001°37'0 0.0
2018-Feb-15 21:50N 47°12' W 001°37'0 0.0
2018-Feb-15 21:16N 47°12' W 001°37'0 0.0
2018-Feb-15 20:53N 47°12' W 001°37'0 0.0
2018-Feb-15 20:29N 47°12' W 001°37'0 0.0
2018-Feb-15 19:56N 47°12' W 001°37'0 0.0
2018-Feb-15 19:29N 47°12' W 001°37'0 0.0
2018-Feb-15 18:59N 47°12' W 001°37'0 0.0
2018-Feb-15 18:26N 47°12' W 001°37'0 0.0
2018-Feb-15 17:59N 47°12' W 001°37'0 0.0
2018-Feb-15 17:23N 47°12' W 001°37'0 0.0
2018-Feb-15 16:59N 47°12' W 001°37'0 0.0
2018-Feb-15 16:29N 47°12' W 001°37'0 0.0
2018-Feb-15 15:56N 47°12' W 001°37'0 0.0
2018-Feb-15 15:28N 47°12' W 001°37'0 0.0
2018-Feb-15 14:59N 47°12' W 001°37'0 0.0
2018-Feb-15 14:29N 47°12' W 001°37'0 0.0
2018-Feb-15 13:35N 47°12' W 001°37'0 0.1
2018-Feb-15 13:29N 47°12' W 001°37'0 0.0
2018-Feb-15 12:56N 47°12' W 001°37'0 0.0
2018-Feb-15 12:23N 47°12' W 001°37'0 0.0
2018-Feb-15 11:58N 47°12' W 001°37'0 0.0
2018-Feb-15 11:29N 47°12' W 001°37'0 0.0
2018-Feb-15 10:58N 47°12' W 001°37'0 0.0
2018-Feb-15 10:28N 47°12' W 001°37'0 0.0
2018-Feb-15 09:56N 47°12' W 001°37'0 0.0
2018-Feb-15 09:28N 47°12' W 001°37'0 0.0
2018-Feb-15 08:52N 47°12' W 001°37'0 0.0
2018-Feb-15 08:28N 47°12' W 001°37'0 0.0
2018-Feb-15 07:58N 47°12' W 001°37'0 0.0
2018-Feb-15 07:28N 47°12' W 001°37'0 0.0
2018-Feb-15 06:58N 47°12' W 001°37'0 0.0
2018-Feb-15 06:22N 47°12' W 001°37'0 0.0
2018-Feb-15 04:55N 47°12' W 001°37'0 0.0
2018-Feb-15 02:58N 47°12' W 001°37'0 0.0
2018-Feb-15 01:19N 47°12' W 001°37'0 0.0
2018-Feb-15 00:58N 47°12' W 001°37'0 0.0
2018-Feb-15 00:28N 47°12' W 001°37'0 0.0
2018-Feb-14 23:43N 47°12' W 001°37'0 0.0
2018-Feb-14 23:28N 47°12' W 001°37'0 0.0
2018-Feb-14 22:55N 47°12' W 001°37'0 0.0
2018-Feb-14 22:13N 47°12' W 001°37'0 0.0
2018-Feb-14 21:43N 47°12' W 001°37'0 0.0
2018-Feb-14 21:28N 47°12' W 001°37'0 0.0
2018-Feb-14 20:52N 47°12' W 001°37'0 0.0
2018-Feb-14 20:28N 47°12' W 001°37'0 0.0
2018-Feb-14 19:58N 47°12' W 001°37'0 0.0
2018-Feb-14 19:07N 47°12' W 001°37'0 0.0
2018-Feb-14 18:55N 47°12' W 001°37'0 0.0
2018-Feb-14 18:22N 47°12' W 001°37'0 0.0
2018-Feb-14 17:52N 47°12' W 001°37'0 0.0
2018-Feb-14 17:28N 47°12' W 001°37'0 0.0
2018-Feb-14 16:58N 47°12' W 001°37'0 0.0
2018-Feb-14 16:28N 47°12' W 001°37'0 0.0
2018-Feb-14 15:55N 47°12' W 001°37'0 0.0
2018-Feb-14 15:22N 47°12' W 001°37'0 0.0
2018-Feb-14 14:55N 47°12' W 001°37'0 0.0
2018-Feb-14 14:28N 47°12' W 001°37'0 0.0
2018-Feb-14 13:52N 47°12' W 001°37'0 0.0
2018-Feb-14 13:13N 47°12' W 001°37'0 0.0
2018-Feb-14 12:58N 47°12' W 001°37'0 0.0
2018-Feb-14 12:19N 47°12' W 001°37'0 0.0
2018-Feb-14 11:52N 47°12' W 001°37'0 0.0
2018-Feb-14 11:13N 47°12' W 001°37'0 0.0
2018-Feb-14 10:43N 47°12' W 001°37'0 0.0
2018-Feb-14 10:25N 47°12' W 001°37'0 0.0
2018-Feb-14 09:58N 47°12' W 001°37'0 0.0
2018-Feb-14 09:28N 47°12' W 001°37'0 0.0
2018-Feb-14 08:58N 47°12' W 001°37'0 0.0
2018-Feb-14 08:28N 47°12' W 001°37'0 0.0
2018-Feb-14 07:58N 47°12' W 001°37'0 0.0
2018-Feb-14 07:25N 47°12' W 001°37'0 0.0
2018-Feb-14 06:58N 47°12' W 001°37'0 0.0
2018-Feb-14 06:28N 47°12' W 001°37'0 0.0
2018-Feb-14 05:55N 47°12' W 001°37'0 0.0
2018-Feb-14 05:25N 47°12' W 001°37'0 0.0
2018-Feb-14 04:58N 47°12' W 001°37'0 0.0
2018-Feb-14 04:28N 47°12' W 001°37'0 0.0
2018-Feb-14 03:58N 47°12' W 001°37'0 0.0
2018-Feb-14 03:28N 47°12' W 001°37'0 0.0
2018-Feb-14 02:58N 47°12' W 001°37'0 0.0
2018-Feb-14 02:28N 47°12' W 001°37'0 0.0
2018-Feb-14 01:55N 47°12' W 001°37'0 0.0
2018-Feb-14 01:28N 47°12' W 001°37'0 0.0
2018-Feb-14 00:58N 47°12' W 001°37'0 0.0
2018-Feb-14 00:28N 47°12' W 001°37'0 0.0
2018-Feb-13 23:55N 47°12' W 001°37'0 0.0
2018-Feb-13 23:28N 47°12' W 001°37'0 0.0
2018-Feb-13 22:58N 47°12' W 001°37'0 0.0
2018-Feb-13 22:28N 47°12' W 001°37'0 0.0
2018-Feb-13 21:55N 47°12' W 001°37'0 0.0
2018-Feb-13 21:19N 47°12' W 001°37'0 0.0
2018-Feb-13 20:58N 47°12' W 001°37'0 0.0
2018-Feb-13 20:28N 47°12' W 001°37'0 0.0
2018-Feb-13 19:58N 47°12' W 001°37'0 0.0
2018-Feb-13 19:28N 47°12' W 001°37'0 0.0
2018-Feb-13 18:55N 47°12' W 001°37'0 0.0
2018-Feb-13 18:28N 47°12' W 001°37'0 0.0
2018-Feb-13 17:55N 47°12' W 001°37'0 0.0
2018-Feb-13 17:25N 47°12' W 001°37'0 0.0
2018-Feb-13 16:58N 47°12' W 001°37'0 0.0
2018-Feb-13 16:28N 47°12' W 001°37'0 0.0
2018-Feb-13 15:58N 47°12' W 001°37'0 0.0
2018-Feb-13 15:25N 47°12' W 001°37'0 0.0
2018-Feb-13 14:55N 47°12' W 001°37'0 0.0
2018-Feb-13 14:13N 47°12' W 001°37'0 0.0
2018-Feb-13 13:58N 47°12' W 001°37'0 0.0
2018-Feb-13 13:25N 47°12' W 001°37'0 0.0
2018-Feb-13 12:58N 47°12' W 001°37'  

Dump ship's entire track history